createdAt,value
2018-04-12T00:01:52.273Z,5.80
2018-04-12T00:04:18.133Z,5.20
2018-04-12T00:06:44.004Z,6.03
2018-04-12T00:09:09.860Z,5.50
2018-04-12T00:11:35.738Z,4.10
2018-04-12T00:14:01.596Z,5.57
2018-04-12T00:16:27.425Z,5.07
2018-04-12T00:18:53.265Z,5.50
2018-04-12T00:21:19.109Z,4.90
2018-04-12T00:23:44.922Z,5.10
2018-04-12T00:26:10.760Z,4.67
2018-04-12T00:28:36.662Z,4.97
2018-04-12T00:31:02.540Z,4.87
2018-04-12T00:43:13.413Z,5.00
2018-04-12T00:45:39.233Z,4.80
2018-04-12T00:48:05.116Z,5.00
2018-04-12T00:50:30.967Z,5.20
2018-04-12T00:52:56.817Z,5.30
2018-04-12T00:55:22.677Z,4.60
2018-04-12T00:57:48.528Z,4.20
2018-04-12T01:00:14.396Z,4.10
2018-04-12T01:02:40.278Z,4.80
2018-04-12T01:05:06.162Z,4.70
2018-04-12T01:07:32.005Z,4.70
2018-04-12T01:09:57.852Z,4.20
2018-04-12T01:12:23.674Z,4.33
2018-04-12T01:14:49.528Z,4.20
2018-04-12T01:17:15.361Z,4.20
2018-04-12T01:19:41.201Z,4.43
2018-04-12T01:22:07.057Z,5.10
2018-04-12T01:24:32.892Z,5.33
2018-04-12T01:26:58.759Z,4.40
2018-04-12T01:29:31.671Z,4.77
2018-04-12T01:31:57.576Z,4.07
2018-04-12T01:34:23.437Z,4.80
2018-04-12T01:36:49.320Z,5.00
2018-04-12T01:39:15.185Z,4.83
2018-04-12T01:41:41.090Z,3.87
2018-04-12T01:44:06.976Z,6.53
2018-04-12T01:46:32.857Z,4.83
2018-04-12T01:48:58.709Z,4.63
2018-04-12T01:51:24.620Z,5.10
2018-04-12T01:53:50.485Z,5.30
2018-04-12T01:56:16.346Z,4.50
2018-04-12T01:58:42.216Z,4.90
2018-04-12T02:01:08.091Z,5.47
2018-04-12T02:03:33.948Z,4.53
2018-04-12T02:05:59.805Z,5.20
2018-04-12T02:08:25.681Z,4.37
2018-04-12T02:10:51.567Z,5.13
2018-04-12T02:13:17.483Z,4.90
2018-04-12T02:15:43.373Z,4.07
2018-04-12T02:18:09.286Z,4.30
2018-04-12T02:20:35.125Z,5.27
2018-04-12T02:23:01.008Z,5.17
2018-04-12T02:25:26.871Z,5.13
2018-04-12T02:27:52.732Z,5.20
2018-04-12T02:30:18.655Z,4.67
2018-04-12T02:32:44.541Z,4.67
2018-04-12T02:35:10.398Z,3.70
2018-04-12T02:37:36.260Z,4.77
2018-04-12T02:40:02.167Z,5.23
2018-04-12T02:42:28.023Z,4.33
2018-04-12T02:44:53.870Z,5.30
2018-04-12T02:47:19.721Z,4.40
2018-04-12T02:49:45.596Z,4.20
2018-04-12T02:52:11.451Z,3.73
2018-04-12T02:54:37.349Z,4.87
2018-04-12T02:57:03.281Z,4.70
2018-04-12T02:59:29.145Z,5.07
2018-04-12T03:01:55.040Z,3.90
2018-04-12T03:04:20.911Z,4.80
2018-04-12T03:06:46.823Z,4.13
2018-04-12T03:09:12.663Z,4.20
2018-04-12T03:11:38.516Z,4.30
2018-04-12T03:14:04.383Z,4.37
2018-04-12T03:16:30.287Z,4.10
2018-04-12T03:18:56.141Z,4.53
2018-04-12T03:21:21.994Z,5.20
2018-04-12T03:23:47.869Z,4.77
2018-04-12T03:26:13.717Z,5.10
2018-04-12T03:28:39.573Z,4.97
2018-04-12T03:31:05.454Z,4.70
2018-04-12T03:33:31.340Z,4.83
2018-04-12T03:35:57.229Z,5.60
2018-04-12T03:38:23.080Z,7.33
2018-04-12T03:40:48.964Z,4.80
2018-04-12T03:43:14.862Z,4.30
2018-04-12T03:45:40.733Z,4.07
2018-04-12T03:48:06.619Z,4.40
2018-04-12T03:50:32.590Z,3.80
2018-04-12T03:52:58.427Z,4.63
2018-04-12T03:55:24.307Z,4.27
2018-04-12T03:57:50.157Z,3.97
2018-04-12T04:00:16.057Z,5.20
2018-04-12T04:02:41.914Z,4.53
2018-04-12T04:05:07.766Z,4.30
2018-04-12T04:07:34.093Z,5.93
2018-04-12T04:09:59.965Z,4.70
2018-04-12T04:12:25.865Z,4.87
2018-04-12T04:18:12.981Z,5.33
2018-04-12T04:21:12.563Z,4.73
2018-04-12T04:23:38.425Z,4.57
2018-04-12T04:26:04.341Z,5.40
2018-04-12T04:28:30.188Z,5.60
2018-04-12T04:30:56.109Z,4.20
2018-04-12T04:33:21.959Z,4.17
2018-04-12T04:35:47.799Z,5.20
2018-04-12T04:38:13.669Z,4.70
2018-04-12T04:40:39.562Z,5.37
2018-04-12T04:43:05.445Z,4.70
2018-04-12T04:45:31.339Z,3.83
2018-04-12T04:47:57.209Z,4.50
2018-04-12T04:50:23.095Z,4.00
2018-04-12T04:52:48.976Z,4.37
2018-04-12T04:55:14.833Z,4.30
2018-04-12T04:57:40.743Z,5.50
2018-04-12T05:00:06.714Z,4.90
2018-04-12T05:02:32.653Z,4.93
2018-04-12T05:04:58.533Z,3.80
2018-04-12T05:07:24.409Z,4.80
2018-04-12T05:09:50.284Z,4.20
2018-04-12T05:12:16.189Z,4.10
2018-04-12T05:14:42.064Z,4.33
2018-04-12T05:17:07.961Z,4.00
2018-04-12T05:19:33.819Z,4.13
2018-04-12T05:21:59.685Z,3.80
2018-04-12T05:24:25.537Z,3.33
2018-04-12T05:26:51.385Z,4.20
2018-04-12T05:29:17.302Z,4.10
2018-04-12T05:31:43.163Z,3.83
2018-04-12T05:34:09.089Z,5.60
2018-04-12T05:36:34.955Z,4.37
2018-04-12T05:39:00.800Z,4.63
2018-04-12T05:41:26.640Z,4.83
2018-04-12T05:43:52.505Z,4.47
2018-04-12T05:46:18.385Z,4.00
2018-04-12T05:48:44.292Z,4.70
2018-04-12T05:51:10.129Z,3.90
2018-04-12T05:53:36.012Z,4.00
2018-04-12T05:56:01.887Z,4.10
2018-04-12T05:58:27.756Z,4.40
2018-04-12T06:01:00.485Z,4.40
2018-04-12T06:03:26.368Z,3.70
2018-04-12T06:05:52.204Z,3.60
2018-04-12T06:08:18.044Z,4.13
2018-04-12T06:10:43.893Z,4.20
2018-04-12T06:13:09.768Z,3.63
2018-04-12T06:15:35.629Z,4.53
2018-04-12T06:18:01.469Z,4.90
2018-04-12T06:20:27.394Z,4.73
2018-04-12T06:22:53.226Z,4.40
2018-04-12T06:25:19.116Z,4.20
2018-04-12T06:27:45.004Z,3.97
2018-04-12T06:30:10.841Z,3.93
2018-04-12T06:32:36.673Z,4.17
2018-04-12T06:35:02.529Z,4.03
2018-04-12T06:37:35.386Z,3.80
2018-04-12T06:40:01.250Z,4.53
2018-04-12T06:42:27.100Z,3.50
2018-04-12T06:44:52.977Z,3.90
2018-04-12T06:47:18.828Z,3.80
2018-04-12T06:49:44.701Z,3.90
2018-04-12T06:52:10.625Z,4.00
2018-04-12T06:54:36.479Z,4.20
2018-04-12T06:57:02.393Z,4.57
2018-04-12T06:59:28.284Z,4.73
2018-04-12T07:01:54.105Z,4.13
2018-04-12T07:04:19.976Z,4.63
2018-04-12T07:06:45.841Z,3.90
2018-04-12T07:09:11.755Z,4.20
2018-04-12T07:11:37.615Z,4.20
2018-04-12T07:14:03.493Z,4.20
2018-04-12T07:16:29.346Z,4.57
2018-04-12T07:18:55.201Z,4.00
2018-04-12T07:21:21.048Z,4.67
2018-04-12T07:23:46.962Z,3.87
2018-04-12T07:26:12.849Z,4.03
2018-04-12T07:28:38.716Z,4.40
2018-04-12T07:31:04.592Z,5.33
2018-04-12T07:33:30.453Z,3.20
2018-04-12T07:35:56.401Z,4.40
2018-04-12T07:38:22.245Z,4.27
2018-04-12T07:40:48.132Z,3.83
2018-04-12T07:43:14.008Z,4.40
2018-04-12T07:45:39.896Z,3.77
2018-04-12T07:48:05.776Z,4.40
2018-04-12T07:50:31.704Z,4.10
2018-04-12T07:52:57.606Z,4.03
2018-04-12T07:55:23.468Z,4.00
2018-04-12T07:57:49.300Z,4.30
2018-04-12T08:00:15.132Z,4.10
2018-04-12T08:02:40.960Z,3.17
2018-04-12T08:05:06.804Z,3.90
2018-04-12T08:07:32.684Z,4.33
2018-04-12T08:09:58.537Z,3.43
2018-04-12T08:12:24.430Z,3.67
2018-04-12T08:14:50.272Z,3.50
2018-04-12T08:17:16.138Z,3.47
2018-04-12T08:19:42.040Z,4.20
2018-04-12T08:22:07.914Z,3.30
2018-04-12T08:24:33.787Z,3.87
2018-04-12T08:26:59.680Z,2.97
2018-04-12T08:29:25.524Z,3.50
2018-04-12T08:31:51.410Z,3.37
2018-04-12T08:34:17.259Z,3.40
2018-04-12T08:36:43.106Z,3.77
2018-04-12T08:39:08.971Z,3.60
2018-04-12T08:41:34.801Z,3.17
2018-04-12T08:44:00.679Z,3.10
2018-04-12T08:46:26.589Z,3.30
2018-04-12T08:48:52.469Z,3.20
2018-04-12T08:51:18.321Z,3.60
2018-04-12T08:53:44.204Z,3.57
2018-04-12T08:56:10.069Z,3.57
2018-04-12T08:58:35.937Z,3.43
2018-04-12T09:01:01.804Z,3.27
2018-04-12T09:03:27.667Z,2.70
2018-04-12T09:05:53.534Z,3.20
2018-04-12T09:08:19.381Z,6.10
2018-04-12T09:10:45.284Z,3.30
2018-04-12T09:13:11.161Z,3.40
2018-04-12T09:15:37.021Z,4.10
2018-04-12T09:18:02.865Z,3.70
2018-04-12T09:20:28.734Z,3.60
2018-04-12T09:22:54.532Z,3.47
2018-04-12T09:25:20.397Z,3.60
2018-04-12T09:27:46.272Z,3.30
2018-04-12T09:30:12.124Z,3.10
2018-04-12T09:32:37.949Z,3.77
2018-04-12T09:35:03.802Z,3.77
2018-04-12T09:37:29.661Z,3.43
2018-04-12T09:39:55.501Z,5.13
2018-04-12T09:42:21.345Z,3.93
2018-04-12T09:44:47.158Z,3.60
2018-04-12T09:47:13.020Z,3.30
2018-04-12T09:49:38.874Z,4.00
2018-04-12T09:52:04.737Z,3.43
2018-04-12T09:54:30.557Z,3.03
2018-04-12T09:56:56.384Z,3.80
2018-04-12T09:59:22.260Z,3.33
2018-04-12T10:01:53.972Z,3.80
2018-04-12T10:04:19.848Z,3.33
2018-04-12T10:06:51.646Z,4.50
2018-04-12T10:09:17.544Z,4.20
2018-04-12T10:11:43.401Z,4.30
2018-04-12T10:14:09.261Z,3.20
2018-04-12T10:16:35.193Z,4.33
2018-04-12T10:19:01.049Z,4.07
2018-04-12T10:21:26.924Z,3.33
2018-04-12T10:23:52.894Z,3.40
2018-04-12T10:26:18.724Z,3.60
2018-04-12T10:28:44.606Z,4.00
2018-04-12T10:31:10.485Z,3.93
2018-04-12T10:33:36.346Z,2.77
2018-04-12T10:36:02.223Z,3.43
2018-04-12T10:38:28.100Z,2.77
2018-04-12T10:40:53.960Z,2.93
2018-04-12T10:43:19.802Z,3.60
2018-04-12T10:45:45.666Z,3.10
2018-04-12T10:48:11.518Z,3.33
2018-04-12T10:50:37.386Z,3.00
2018-04-12T10:53:03.261Z,3.70
2018-04-12T10:55:29.152Z,3.37
2018-04-12T10:57:55.021Z,3.20
2018-04-12T11:00:20.861Z,3.70
2018-04-12T11:02:46.736Z,3.13
2018-04-12T11:05:12.605Z,3.10
2018-04-12T11:07:38.476Z,3.37
2018-04-12T11:10:04.460Z,3.13
2018-04-12T11:12:30.334Z,2.90
2018-04-12T11:14:56.177Z,2.93
2018-04-12T11:17:22.094Z,3.20
2018-04-12T11:19:47.988Z,2.90
2018-04-12T11:22:13.828Z,3.70
2018-04-12T11:24:39.693Z,4.03
2018-04-12T11:27:05.596Z,3.07
2018-04-12T11:29:31.446Z,3.37
2018-04-12T11:31:57.304Z,3.33
2018-04-12T11:34:23.217Z,2.93
2018-04-12T11:36:49.009Z,2.70
2018-04-12T11:39:14.876Z,2.77
2018-04-12T11:41:40.756Z,3.10
2018-04-12T11:44:06.628Z,3.07
2018-04-12T11:46:32.519Z,3.37
2018-04-12T11:48:58.377Z,2.60
2018-04-12T11:51:24.222Z,1.53
2018-04-12T11:53:50.101Z,1.77
2018-04-12T11:56:15.976Z,2.10
2018-04-12T11:58:41.889Z,2.50
2018-04-12T12:04:02.608Z,2.60
2018-04-12T12:06:28.501Z,2.37
2018-04-12T12:08:54.345Z,1.70
2018-04-12T12:11:20.209Z,2.20
2018-04-12T12:13:46.056Z,2.77
2018-04-12T12:16:11.889Z,1.40
2018-04-12T12:18:37.732Z,2.00
2018-04-12T12:21:03.607Z,2.83
2018-04-12T12:23:29.466Z,1.80
2018-04-12T12:25:55.306Z,1.83
2018-04-12T12:28:21.141Z,1.60
2018-04-12T12:30:46.988Z,2.37
2018-04-12T12:33:12.827Z,1.93
2018-04-12T12:35:38.741Z,1.80
2018-04-12T12:38:04.601Z,2.10
2018-04-12T12:40:30.433Z,2.63
2018-04-12T12:42:56.293Z,2.27
2018-04-12T12:45:34.327Z,2.30
2018-04-12T12:48:06.320Z,2.30
2018-04-12T12:50:32.161Z,1.80
2018-04-12T12:53:04.198Z,2.10
2018-04-12T12:55:30.063Z,1.67
2018-04-12T12:58:02.231Z,2.03
2018-04-12T13:00:34.134Z,2.17
2018-04-12T13:02:59.984Z,2.00
2018-04-12T13:05:25.837Z,2.00
2018-04-12T13:07:51.672Z,1.63
2018-04-12T13:10:23.505Z,1.70
2018-04-12T13:12:55.309Z,2.03
2018-04-12T13:15:21.198Z,2.00
2018-04-12T13:17:47.117Z,1.93
2018-04-12T13:20:12.974Z,2.00
2018-04-12T13:22:38.841Z,2.43
2018-04-12T13:25:05.030Z,1.93
2018-04-12T13:27:30.905Z,1.87
2018-04-12T13:29:56.768Z,2.10
2018-04-12T13:32:22.633Z,2.80
2018-04-12T13:34:54.667Z,1.43
2018-04-12T13:37:20.536Z,1.40
2018-04-12T13:39:52.409Z,1.90
2018-04-12T13:42:18.268Z,1.73
2018-04-12T13:44:44.161Z,1.93
2018-04-12T13:47:16.163Z,2.37
2018-04-12T13:49:42.029Z,1.60
2018-04-12T13:52:14.005Z,2.30
2018-04-12T13:54:46.124Z,2.37
2018-04-12T13:57:11.979Z,1.70
2018-04-12T13:59:43.974Z,1.47
2018-04-12T14:02:15.974Z,2.23
2018-04-12T14:04:41.809Z,1.80
2018-04-12T14:07:19.853Z,1.57
2018-04-12T14:09:58.116Z,2.30
2018-04-12T14:12:23.976Z,2.07
2018-04-12T14:14:49.855Z,1.80
2018-04-12T14:17:27.913Z,2.03
2018-04-12T14:19:53.765Z,2.20
2018-04-12T14:22:19.643Z,1.97
2018-04-12T14:24:51.505Z,1.97
2018-04-12T14:27:17.369Z,2.00
2018-04-12T14:29:43.242Z,2.40
2018-04-12T14:32:09.122Z,1.83
2018-04-12T14:34:34.988Z,2.13
2018-04-12T14:37:06.948Z,2.47
2018-04-12T14:39:32.838Z,1.93
2018-04-12T14:41:59.737Z,2.17
2018-04-12T14:44:31.770Z,2.00
2018-04-12T14:46:57.646Z,1.87
2018-04-12T14:49:23.488Z,1.70
2018-04-12T14:51:49.366Z,3.00
2018-04-12T14:54:21.304Z,2.63
2018-04-12T14:56:59.552Z,2.80
2018-04-12T14:59:25.443Z,2.43
2018-04-12T15:01:51.348Z,2.70
2018-04-12T15:04:17.261Z,2.00
2018-04-12T15:06:43.153Z,2.10
2018-04-12T15:09:15.058Z,1.77
2018-04-12T15:11:47.084Z,2.17
2018-04-12T15:14:13.010Z,1.97
2018-04-12T15:16:38.880Z,1.70
2018-04-12T15:19:10.920Z,2.70
2018-04-12T15:21:42.909Z,1.70
2018-04-12T15:24:08.838Z,2.00
2018-04-12T15:26:34.693Z,1.33
2018-04-12T15:29:00.538Z,1.90
2018-04-12T15:31:38.721Z,1.80
2018-04-12T15:34:04.629Z,2.00
2018-04-12T15:36:36.609Z,2.17
2018-04-12T15:39:08.583Z,3.17
2018-04-12T15:41:34.474Z,1.57
2018-04-12T15:44:06.482Z,2.13
2018-04-12T15:46:32.401Z,2.10
2018-04-12T15:49:04.346Z,2.03
2018-04-12T15:51:30.268Z,2.33
2018-04-12T15:54:02.203Z,1.90
2018-04-12T15:56:34.103Z,1.80
2018-04-12T15:59:12.350Z,2.20
2018-04-12T16:01:44.414Z,5.70
2018-04-12T16:04:16.489Z,2.40
2018-04-12T16:06:48.623Z,2.07
2018-04-12T16:09:14.576Z,1.80
2018-04-12T16:11:40.670Z,1.77
2018-04-12T16:14:06.607Z,2.40
2018-04-12T16:16:38.628Z,1.93
2018-04-12T16:19:16.932Z,1.87
2018-04-12T16:21:49.008Z,1.70
2018-04-12T16:24:14.907Z,2.67
2018-04-12T16:26:40.781Z,2.30
2018-04-12T16:29:06.683Z,1.87
2018-04-12T16:31:32.557Z,2.10
2018-04-12T16:33:58.394Z,2.10
2018-04-12T16:36:24.269Z,2.27
2018-04-12T16:38:50.170Z,2.13
2018-04-12T16:41:16.094Z,2.10
2018-04-12T16:43:41.966Z,2.90
2018-04-12T16:46:13.938Z,2.70
2018-04-12T16:48:45.881Z,2.50
2018-04-12T16:51:11.777Z,2.10
2018-04-12T16:53:49.976Z,3.13
2018-04-12T16:56:15.889Z,2.10
2018-04-12T16:58:47.800Z,2.40
2018-04-12T17:01:13.684Z,3.43
2018-04-12T17:03:45.669Z,3.13
2018-04-12T17:06:11.509Z,2.87
2018-04-12T17:08:37.365Z,2.27
2018-04-12T17:11:03.250Z,3.10
2018-04-12T17:13:41.474Z,2.30
2018-04-12T17:16:07.383Z,2.80
2018-04-12T17:18:33.268Z,3.13
2018-04-12T17:20:59.171Z,2.90
2018-04-12T17:23:25.069Z,2.20
2018-04-12T17:25:50.950Z,1.90
2018-04-12T17:28:16.843Z,2.27
2018-04-12T17:30:48.824Z,2.20
2018-04-12T17:33:14.706Z,2.67
2018-04-12T17:35:40.565Z,2.50
2018-04-12T17:38:06.509Z,2.17
2018-04-12T17:40:32.362Z,2.30
2018-04-12T17:43:04.261Z,2.40
2018-04-12T17:45:30.181Z,3.00
2018-04-12T17:47:56.077Z,2.70
2018-04-12T17:50:22.003Z,2.40
2018-04-12T17:52:53.934Z,2.83
2018-04-12T17:55:19.827Z,3.23
2018-04-12T17:57:45.712Z,3.00
2018-04-12T18:00:11.696Z,2.20
2018-04-12T18:02:43.580Z,2.47
2018-04-12T18:05:09.493Z,2.73
2018-04-12T18:07:35.381Z,2.50
2018-04-12T18:10:01.321Z,2.80
2018-04-12T18:12:27.225Z,3.20
2018-04-12T18:14:53.172Z,2.70
2018-04-12T18:17:19.098Z,2.87
2018-04-12T18:19:51.102Z,3.00
2018-04-12T18:22:23.201Z,2.87
2018-04-12T18:34:29.122Z,3.73
2018-04-12T18:36:55.023Z,4.10
2018-04-12T18:39:33.125Z,4.20
2018-04-12T18:42:05.268Z,5.40
2018-04-12T18:44:43.523Z,3.80
2018-04-12T18:47:09.382Z,3.73
2018-04-12T18:49:35.252Z,4.57
2018-04-12T18:52:01.188Z,4.43
2018-04-12T18:54:27.128Z,4.40
2018-04-12T18:56:53.005Z,3.73
2018-04-12T18:59:31.419Z,4.10
2018-04-12T19:01:57.348Z,5.23
2018-04-12T19:04:23.276Z,4.47
2018-04-12T19:06:55.400Z,4.73
2018-04-12T19:09:21.317Z,4.30
2018-04-12T19:11:47.245Z,4.37
2018-04-12T19:14:13.157Z,5.27
2018-04-12T19:16:45.324Z,3.60
2018-04-12T19:19:11.239Z,4.50
2018-04-12T19:21:49.542Z,3.40
2018-04-12T19:24:16.150Z,2.90
2018-04-12T19:26:48.142Z,3.50
2018-04-12T19:29:14.062Z,4.00
2018-04-12T19:31:39.956Z,3.17
2018-04-12T19:34:12.005Z,3.10
2018-04-12T19:36:37.991Z,3.30
2018-04-12T19:39:03.930Z,3.50
2018-04-12T19:41:29.778Z,3.30
2018-04-12T19:43:55.637Z,3.57
2018-04-12T19:46:27.517Z,2.43
2018-04-12T19:48:53.404Z,3.23
2018-04-12T19:51:19.288Z,4.23
2018-04-12T19:53:45.166Z,3.50
2018-04-12T19:56:11.044Z,3.37
2018-04-12T19:58:36.898Z,3.73
2018-04-12T20:01:08.903Z,3.40
2018-04-12T20:03:34.849Z,3.80
2018-04-12T20:06:00.745Z,4.17
2018-04-12T20:08:26.641Z,3.60
2018-04-12T20:10:58.692Z,3.20
2018-04-12T20:13:24.553Z,3.00
2018-04-12T20:15:56.695Z,4.00
2018-04-12T20:18:28.677Z,3.87
2018-04-12T20:20:54.583Z,3.20
2018-04-12T20:23:26.422Z,2.60
2018-04-12T20:25:58.357Z,3.77
2018-04-12T20:28:24.202Z,2.80
2018-04-12T20:30:50.077Z,2.90
2018-04-12T20:33:22.136Z,3.60
2018-04-12T20:35:54.052Z,5.10
2018-04-12T20:38:25.986Z,4.47
2018-04-12T20:40:58.050Z,4.20
2018-04-12T20:43:30.060Z,4.33
2018-04-12T20:45:55.947Z,3.00
2018-04-12T20:48:27.973Z,3.20
2018-04-12T20:50:53.816Z,3.47
2018-04-12T20:53:19.684Z,3.27
2018-04-12T20:55:45.560Z,3.00
2018-04-12T20:58:11.428Z,2.87
2018-04-12T21:00:43.456Z,3.73
2018-04-12T21:03:09.354Z,2.80
2018-04-12T21:05:35.221Z,2.47
2018-04-12T21:08:07.241Z,2.80
2018-04-12T21:10:33.119Z,2.73
2018-04-12T21:13:05.322Z,3.47
2018-04-12T21:15:31.178Z,3.47
2018-04-12T21:18:03.052Z,2.20
2018-04-12T21:20:35.083Z,2.80
2018-04-12T21:23:00.954Z,2.37
2018-04-12T21:25:26.845Z,2.17
2018-04-12T21:27:58.937Z,3.20
2018-04-12T21:30:24.800Z,2.80
2018-04-12T21:32:50.637Z,2.80
2018-04-12T21:35:16.484Z,2.73
2018-04-12T21:37:42.307Z,2.37
2018-04-12T21:40:08.181Z,3.80
2018-04-12T21:42:34.042Z,4.63
2018-04-12T21:45:05.949Z,3.70
2018-04-12T21:47:31.835Z,3.80
2018-04-12T21:49:57.722Z,3.10
2018-04-12T21:52:29.713Z,2.70
2018-04-12T21:55:01.594Z,2.50
2018-04-12T21:57:33.640Z,2.93
2018-04-12T22:00:05.567Z,2.47
2018-04-12T22:02:43.621Z,2.80
2018-04-12T22:05:09.473Z,2.10
2018-04-12T22:07:35.316Z,2.23
2018-04-12T22:10:07.218Z,2.47
2018-04-12T22:12:33.127Z,2.00
2018-04-12T22:14:59.008Z,2.10
2018-04-12T22:17:31.044Z,2.07
2018-04-12T22:19:56.928Z,2.23
2018-04-12T22:22:22.786Z,2.30
2018-04-12T22:24:54.673Z,1.60
2018-04-12T22:27:20.577Z,1.87
2018-04-12T22:29:46.389Z,2.07
2018-04-12T22:32:12.257Z,2.47
2018-04-12T22:34:44.268Z,1.90
2018-04-12T22:37:16.422Z,2.37
2018-04-12T22:39:42.306Z,1.80
2018-04-12T22:42:08.182Z,1.87
2018-04-12T22:44:40.172Z,2.07
2018-04-12T22:47:06.027Z,2.00
2018-04-12T22:49:37.933Z,1.70
2018-04-12T22:52:03.842Z,2.33
2018-04-12T22:54:35.765Z,2.00
2018-04-12T22:57:07.603Z,2.10
2018-04-12T22:59:33.470Z,1.80
2018-04-12T23:01:59.351Z,2.60
2018-04-12T23:04:25.240Z,2.50
2018-04-12T23:06:51.102Z,1.90
2018-04-12T23:09:29.464Z,2.00
2018-04-12T23:11:55.319Z,1.70
2018-04-12T23:14:21.193Z,2.00
2018-04-12T23:16:47.040Z,2.03
2018-04-12T23:19:12.870Z,1.67
2018-04-12T23:21:38.734Z,2.10
2018-04-12T23:24:04.609Z,2.33
2018-04-12T23:26:36.714Z,1.70
2018-04-12T23:29:02.596Z,1.80
2018-04-12T23:31:28.460Z,1.80
2018-04-12T23:33:54.314Z,2.23
2018-04-12T23:36:20.154Z,1.83
2018-04-12T23:38:46.068Z,1.70
2018-04-12T23:41:11.914Z,2.23
2018-04-12T23:43:43.958Z,1.57
2018-04-12T23:46:09.795Z,2.10
2018-04-12T23:48:35.643Z,3.13
2018-04-12T23:51:01.470Z,2.77
2018-04-12T23:53:27.285Z,2.10
2018-04-12T23:55:59.362Z,2.40
2018-04-12T23:58:31.204Z,1.90
